sensor_id;sensor_type;location;lat;lon;timestamp;P1;durP1;ratioP1;P2;durP2;ratioP2
9518;SDS011;4797;50.220;8.782;2022-07-11T00:00:54;76.93;;;54.30;;
9518;SDS011;4797;50.220;8.782;2022-07-11T00:03:24;79.00;;;55.63;;
9518;SDS011;4797;50.220;8.782;2022-07-11T00:05:52;77.80;;;55.17;;
9518;SDS011;4797;50.220;8.782;2022-07-11T00:08:20;80.30;;;55.70;;
9518;SDS011;4797;50.220;8.782;2022-07-11T00:10:48;78.13;;;55.23;;
9518;SDS011;4797;50.220;8.782;2022-07-11T00:13:17;73.77;;;52.63;;
9518;SDS011;4797;50.220;8.782;2022-07-11T00:15:45;79.67;;;56.93;;
9518;SDS011;4797;50.220;8.782;2022-07-11T00:18:13;82.13;;;56.13;;
9518;SDS011;4797;50.220;8.782;2022-07-11T00:20:43;79.33;;;55.73;;
9518;SDS011;4797;50.220;8.782;2022-07-11T00:23:11;80.00;;;56.80;;
9518;SDS011;4797;50.220;8.782;2022-07-11T00:25:40;82.33;;;56.20;;
9518;SDS011;4797;50.220;8.782;2022-07-11T00:28:08;79.27;;;55.37;;
9518;SDS011;4797;50.220;8.782;2022-07-11T00:30:36;82.90;;;57.57;;
9518;SDS011;4797;50.220;8.782;2022-07-11T00:33:04;79.50;;;56.00;;
9518;SDS011;4797;50.220;8.782;2022-07-11T00:35:33;81.73;;;55.33;;
9518;SDS011;4797;50.220;8.782;2022-07-11T00:38:02;84.43;;;57.90;;
9518;SDS011;4797;50.220;8.782;2022-07-11T00:40:31;79.33;;;55.80;;
9518;SDS011;4797;50.220;8.782;2022-07-11T00:42:59;77.93;;;55.27;;
9518;SDS011;4797;50.220;8.782;2022-07-11T00:45:27;75.60;;;53.77;;
9518;SDS011;4797;50.220;8.782;2022-07-11T00:47:55;79.17;;;55.57;;
9518;SDS011;4797;50.220;8.782;2022-07-11T00:50:24;80.53;;;55.23;;
9518;SDS011;4797;50.220;8.782;2022-07-11T00:52:55;77.47;;;54.43;;
9518;SDS011;4797;50.220;8.782;2022-07-11T00:55:26;79.93;;;54.80;;
9518;SDS011;4797;50.220;8.782;2022-07-11T00:57:55;79.57;;;55.60;;
9518;SDS011;4797;50.220;8.782;2022-07-11T01:00:24;79.63;;;55.27;;
9518;SDS011;4797;50.220;8.782;2022-07-11T01:02:52;78.20;;;55.33;;
9518;SDS011;4797;50.220;8.782;2022-07-11T01:05:22;78.17;;;55.53;;
9518;SDS011;4797;50.220;8.782;2022-07-11T01:07:50;76.70;;;54.27;;
9518;SDS011;4797;50.220;8.782;2022-07-11T01:10:18;78.20;;;56.07;;
9518;SDS011;4797;50.220;8.782;2022-07-11T01:12:48;76.23;;;53.50;;
9518;SDS011;4797;50.220;8.782;2022-07-11T01:15:16;78.60;;;56.40;;
9518;SDS011;4797;50.220;8.782;2022-07-11T01:17:45;79.80;;;55.13;;
9518;SDS011;4797;50.220;8.782;2022-07-11T01:20:13;72.17;;;51.53;;
9518;SDS011;4797;50.220;8.782;2022-07-11T01:22:43;81.53;;;58.07;;
9518;SDS011;4797;50.220;8.782;2022-07-11T01:25:14;74.00;;;52.73;;
9518;SDS011;4797;50.220;8.782;2022-07-11T01:27:56;71.93;;;51.50;;
9518;SDS011;4797;50.220;8.782;2022-07-11T01:30:24;72.03;;;51.37;;
9518;SDS011;4797;50.220;8.782;2022-07-11T01:32:55;77.73;;;55.10;;
9518;SDS011;4797;50.220;8.782;2022-07-11T01:35:23;74.17;;;53.20;;
9518;SDS011;4797;50.220;8.782;2022-07-11T01:37:52;74.23;;;53.07;;
9518;SDS011;4797;50.220;8.782;2022-07-11T01:40:29;78.03;;;55.20;;
9518;SDS011;4797;50.220;8.782;2022-07-11T01:42:57;74.20;;;51.83;;
9518;SDS011;4797;50.220;8.782;2022-07-11T01:45:25;80.73;;;55.30;;
9518;SDS011;4797;50.220;8.782;2022-07-11T01:47:54;80.27;;;56.83;;
9518;SDS011;4797;50.220;8.782;2022-07-11T01:50:22;70.87;;;50.93;;
9518;SDS011;4797;50.220;8.782;2022-07-11T01:52:50;79.83;;;56.00;;
9518;SDS011;4797;50.220;8.782;2022-07-11T01:55:19;77.47;;;54.83;;
9518;SDS011;4797;50.220;8.782;2022-07-11T01:57:48;74.60;;;52.27;;
9518;SDS011;4797;50.220;8.782;2022-07-11T02:00:17;77.70;;;54.60;;
9518;SDS011;4797;50.220;8.782;2022-07-11T02:02:45;79.57;;;54.87;;
9518;SDS011;4797;50.220;8.782;2022-07-11T02:05:13;78.70;;;56.40;;
9518;SDS011;4797;50.220;8.782;2022-07-11T02:07:44;73.60;;;52.70;;
9518;SDS011;4797;50.220;8.782;2022-07-11T02:10:30;77.97;;;54.20;;
9518;SDS011;4797;50.220;8.782;2022-07-11T02:13:00;72.30;;;51.60;;
9518;SDS011;4797;50.220;8.782;2022-07-11T02:15:29;73.53;;;52.30;;
9518;SDS011;4797;50.220;8.782;2022-07-11T02:17:57;76.97;;;55.27;;
9518;SDS011;4797;50.220;8.782;2022-07-11T02:20:28;79.60;;;54.50;;
9518;SDS011;4797;50.220;8.782;2022-07-11T02:22:56;77.47;;;55.43;;
9518;SDS011;4797;50.220;8.782;2022-07-11T02:25:24;75.33;;;53.07;;
9518;SDS011;4797;50.220;8.782;2022-07-11T02:27:53;79.00;;;53.73;;
9518;SDS011;4797;50.220;8.782;2022-07-11T02:30:24;72.53;;;51.73;;
9518;SDS011;4797;50.220;8.782;2022-07-11T02:32:53;72.27;;;51.80;;
9518;SDS011;4797;50.220;8.782;2022-07-11T02:35:22;77.63;;;55.50;;
9518;SDS011;4797;50.220;8.782;2022-07-11T02:37:50;80.63;;;58.43;;
9518;SDS011;4797;50.220;8.782;2022-07-11T02:40:18;73.87;;;51.97;;
9518;SDS011;4797;50.220;8.782;2022-07-11T02:42:46;74.97;;;52.07;;
9518;SDS011;4797;50.220;8.782;2022-07-11T02:45:15;74.40;;;52.57;;
9518;SDS011;4797;50.220;8.782;2022-07-11T02:47:44;74.60;;;53.63;;
9518;SDS011;4797;50.220;8.782;2022-07-11T02:50:13;74.10;;;53.17;;
9518;SDS011;4797;50.220;8.782;2022-07-11T02:52:41;73.97;;;53.37;;
9518;SDS011;4797;50.220;8.782;2022-07-11T02:55:10;80.53;;;57.20;;
9518;SDS011;4797;50.220;8.782;2022-07-11T02:57:39;82.10;;;57.50;;
9518;SDS011;4797;50.220;8.782;2022-07-11T03:00:08;79.97;;;56.03;;
9518;SDS011;4797;50.220;8.782;2022-07-11T03:02:37;82.80;;;59.13;;
9518;SDS011;4797;50.220;8.782;2022-07-11T03:05:07;76.60;;;53.57;;
9518;SDS011;4797;50.220;8.782;2022-07-11T03:07:35;77.97;;;56.70;;
9518;SDS011;4797;50.220;8.782;2022-07-11T03:10:04;75.73;;;52.80;;
9518;SDS011;4797;50.220;8.782;2022-07-11T03:12:32;76.67;;;53.33;;
9518;SDS011;4797;50.220;8.782;2022-07-11T03:15:00;81.40;;;56.80;;
9518;SDS011;4797;50.220;8.782;2022-07-11T03:17:29;71.47;;;51.30;;
9518;SDS011;4797;50.220;8.782;2022-07-11T03:19:57;79.70;;;56.43;;
9518;SDS011;4797;50.220;8.782;2022-07-11T03:22:28;75.30;;;52.37;;
9518;SDS011;4797;50.220;8.782;2022-07-11T03:24:56;78.30;;;54.50;;
9518;SDS011;4797;50.220;8.782;2022-07-11T03:27:26;73.20;;;52.43;;
9518;SDS011;4797;50.220;8.782;2022-07-11T03:29:54;76.07;;;54.13;;
9518;SDS011;4797;50.220;8.782;2022-07-11T03:32:22;76.47;;;55.60;;
9518;SDS011;4797;50.220;8.782;2022-07-11T03:34:54;73.17;;;52.27;;
9518;SDS011;4797;50.220;8.782;2022-07-11T03:37:42;79.53;;;52.57;;
9518;SDS011;4797;50.220;8.782;2022-07-11T03:40:10;78.83;;;56.83;;
9518;SDS011;4797;50.220;8.782;2022-07-11T03:42:38;77.77;;;53.60;;
9518;SDS011;4797;50.220;8.782;2022-07-11T03:45:07;75.73;;;54.80;;
9518;SDS011;4797;50.220;8.782;2022-07-11T03:47:37;74.00;;;53.80;;
9518;SDS011;4797;50.220;8.782;2022-07-11T03:50:05;89.33;;;53.43;;
9518;SDS011;4797;50.220;8.782;2022-07-11T03:52:34;74.83;;;53.03;;
9518;SDS011;4797;50.220;8.782;2022-07-11T03:55:04;74.70;;;54.37;;
9518;SDS011;4797;50.220;8.782;2022-07-11T03:57:33;72.90;;;52.67;;
9518;SDS011;4797;50.220;8.782;2022-07-11T04:00:05;77.57;;;53.33;;
9518;SDS011;4797;50.220;8.782;2022-07-11T04:02:35;74.83;;;53.47;;
9518;SDS011;4797;50.220;8.782;2022-07-11T04:05:03;75.70;;;55.53;;
9518;SDS011;4797;50.220;8.782;2022-07-11T04:07:32;75.77;;;53.63;;
9518;SDS011;4797;50.220;8.782;2022-07-11T04:10:00;73.37;;;52.63;;
9518;SDS011;4797;50.220;8.782;2022-07-11T04:12:30;80.03;;;56.13;;
9518;SDS011;4797;50.220;8.782;2022-07-11T04:14:58;79.67;;;56.07;;
9518;SDS011;4797;50.220;8.782;2022-07-11T04:17:26;72.00;;;51.80;;
9518;SDS011;4797;50.220;8.782;2022-07-11T04:19:55;80.10;;;56.50;;
9518;SDS011;4797;50.220;8.782;2022-07-11T04:22:23;74.50;;;52.80;;
9518;SDS011;4797;50.220;8.782;2022-07-11T04:24:52;72.23;;;51.87;;
9518;SDS011;4797;50.220;8.782;2022-07-11T04:27:20;74.33;;;51.57;;
9518;SDS011;4797;50.220;8.782;2022-07-11T04:29:57;78.87;;;56.33;;
9518;SDS011;4797;50.220;8.782;2022-07-11T04:32:25;87.73;;;59.30;;
9518;SDS011;4797;50.220;8.782;2022-07-11T04:34:53;77.73;;;53.60;;
9518;SDS011;4797;50.220;8.782;2022-07-11T04:37:24;81.73;;;57.67;;
9518;SDS011;4797;50.220;8.782;2022-07-11T04:39:54;74.07;;;53.27;;
9518;SDS011;4797;50.220;8.782;2022-07-11T04:42:22;76.07;;;54.43;;
9518;SDS011;4797;50.220;8.782;2022-07-11T04:44:51;74.47;;;53.57;;
9518;SDS011;4797;50.220;8.782;2022-07-11T04:47:20;74.60;;;53.10;;
9518;SDS011;4797;50.220;8.782;2022-07-11T04:49:48;79.73;;;55.83;;
9518;SDS011;4797;50.220;8.782;2022-07-11T04:52:17;83.03;;;57.13;;
9518;SDS011;4797;50.220;8.782;2022-07-11T04:54:45;74.47;;;53.57;;
9518;SDS011;4797;50.220;8.782;2022-07-11T04:57:14;75.50;;;55.00;;
9518;SDS011;4797;50.220;8.782;2022-07-11T04:59:42;88.07;;;59.40;;
9518;SDS011;4797;50.220;8.782;2022-07-11T05:02:10;79.87;;;55.00;;
9518;SDS011;4797;50.220;8.782;2022-07-11T05:04:40;75.90;;;53.87;;
9518;SDS011;4797;50.220;8.782;2022-07-11T05:07:08;84.10;;;59.70;;
9518;SDS011;4797;50.220;8.782;2022-07-11T05:09:38;80.30;;;56.90;;
9518;SDS011;4797;50.220;8.782;2022-07-11T05:12:07;76.30;;;54.30;;
9518;SDS011;4797;50.220;8.782;2022-07-11T05:14:35;76.43;;;53.97;;
9518;SDS011;4797;50.220;8.782;2022-07-11T05:17:04;88.63;;;62.10;;
9518;SDS011;4797;50.220;8.782;2022-07-11T05:19:32;77.50;;;55.37;;
9518;SDS011;4797;50.220;8.782;2022-07-11T05:22:02;78.63;;;54.80;;
9518;SDS011;4797;50.220;8.782;2022-07-11T05:24:30;78.70;;;55.10;;
9518;SDS011;4797;50.220;8.782;2022-07-11T05:26:59;84.43;;;59.07;;
9518;SDS011;4797;50.220;8.782;2022-07-11T05:29:27;81.90;;;54.13;;
9518;SDS011;4797;50.220;8.782;2022-07-11T05:31:55;76.17;;;53.27;;
9518;SDS011;4797;50.220;8.782;2022-07-11T05:34:24;78.10;;;55.90;;
9518;SDS011;4797;50.220;8.782;2022-07-11T05:36:52;80.60;;;55.17;;
9518;SDS011;4797;50.220;8.782;2022-07-11T05:39:22;79.83;;;55.13;;
9518;SDS011;4797;50.220;8.782;2022-07-11T05:41:50;77.83;;;54.77;;
9518;SDS011;4797;50.220;8.782;2022-07-11T05:44:19;75.90;;;54.13;;
9518;SDS011;4797;50.220;8.782;2022-07-11T05:46:47;76.70;;;54.93;;
9518;SDS011;4797;50.220;8.782;2022-07-11T05:49:16;83.20;;;54.13;;
9518;SDS011;4797;50.220;8.782;2022-07-11T05:51:44;76.00;;;54.07;;
9518;SDS011;4797;50.220;8.782;2022-07-11T05:54:12;85.97;;;57.87;;
9518;SDS011;4797;50.220;8.782;2022-07-11T05:56:44;78.27;;;55.67;;
9518;SDS011;4797;50.220;8.782;2022-07-11T05:59:12;78.53;;;54.10;;
9518;SDS011;4797;50.220;8.782;2022-07-11T06:01:41;82.47;;;58.37;;
9518;SDS011;4797;50.220;8.782;2022-07-11T06:04:10;79.07;;;53.60;;
9518;SDS011;4797;50.220;8.782;2022-07-11T06:06:39;84.93;;;53.30;;
9518;SDS011;4797;50.220;8.782;2022-07-11T06:09:08;77.50;;;55.67;;
9518;SDS011;4797;50.220;8.782;2022-07-11T06:11:36;76.90;;;54.70;;
9518;SDS011;4797;50.220;8.782;2022-07-11T06:14:06;75.30;;;53.73;;
9518;SDS011;4797;50.220;8.782;2022-07-11T06:16:34;75.97;;;53.53;;
9518;SDS011;4797;50.220;8.782;2022-07-11T06:19:02;76.33;;;54.50;;
9518;SDS011;4797;50.220;8.782;2022-07-11T06:21:31;77.13;;;54.23;;
9518;SDS011;4797;50.220;8.782;2022-07-11T06:24:00;76.47;;;53.53;;
9518;SDS011;4797;50.220;8.782;2022-07-11T06:26:28;78.83;;;54.07;;
9518;SDS011;4797;50.220;8.782;2022-07-11T06:28:56;73.37;;;52.70;;
9518;SDS011;4797;50.220;8.782;2022-07-11T06:31:26;77.97;;;54.27;;
9518;SDS011;4797;50.220;8.782;2022-07-11T06:33:54;76.40;;;52.50;;
9518;SDS011;4797;50.220;8.782;2022-07-11T06:36:23;77.87;;;53.67;;
9518;SDS011;4797;50.220;8.782;2022-07-11T06:38:52;80.47;;;54.73;;
9518;SDS011;4797;50.220;8.782;2022-07-11T06:41:21;76.90;;;53.70;;
9518;SDS011;4797;50.220;8.782;2022-07-11T06:43:49;81.40;;;56.80;;
9518;SDS011;4797;50.220;8.782;2022-07-11T06:46:18;83.27;;;54.00;;
9518;SDS011;4797;50.220;8.782;2022-07-11T06:48:48;76.17;;;53.17;;
9518;SDS011;4797;50.220;8.782;2022-07-11T06:51:16;77.80;;;53.70;;
9518;SDS011;4797;50.220;8.782;2022-07-11T06:53:44;81.90;;;54.80;;
9518;SDS011;4797;50.220;8.782;2022-07-11T06:56:13;81.33;;;55.93;;
9518;SDS011;4797;50.220;8.782;2022-07-11T06:58:41;80.20;;;55.20;;
9518;SDS011;4797;50.220;8.782;2022-07-11T07:01:09;76.80;;;54.77;;
9518;SDS011;4797;50.220;8.782;2022-07-11T07:03:37;77.37;;;55.03;;
9518;SDS011;4797;50.220;8.782;2022-07-11T07:06:08;80.97;;;57.53;;
9518;SDS011;4797;50.220;8.782;2022-07-11T07:08:36;78.20;;;54.10;;
9518;SDS011;4797;50.220;8.782;2022-07-11T07:11:04;89.33;;;61.50;;
9518;SDS011;4797;50.220;8.782;2022-07-11T07:13:34;79.63;;;55.80;;
9518;SDS011;4797;50.220;8.782;2022-07-11T07:16:03;81.37;;;57.13;;
9518;SDS011;4797;50.220;8.782;2022-07-11T07:18:33;78.93;;;55.10;;
9518;SDS011;4797;50.220;8.782;2022-07-11T07:21:09;78.57;;;54.30;;
9518;SDS011;4797;50.220;8.782;2022-07-11T07:23:37;79.30;;;54.23;;
9518;SDS011;4797;50.220;8.782;2022-07-11T07:26:05;79.00;;;54.67;;
9518;SDS011;4797;50.220;8.782;2022-07-11T07:28:34;78.90;;;54.60;;
9518;SDS011;4797;50.220;8.782;2022-07-11T07:31:05;75.83;;;53.00;;
9518;SDS011;4797;50.220;8.782;2022-07-11T07:33:41;81.30;;;56.83;;
9518;SDS011;4797;50.220;8.782;2022-07-11T07:36:13;77.23;;;53.53;;
9518;SDS011;4797;50.220;8.782;2022-07-11T07:38:41;79.03;;;54.50;;
9518;SDS011;4797;50.220;8.782;2022-07-11T07:41:13;80.10;;;55.43;;
9518;SDS011;4797;50.220;8.782;2022-07-11T07:43:41;81.57;;;56.83;;
9518;SDS011;4797;50.220;8.782;2022-07-11T07:46:09;94.07;;;64.80;;
9518;SDS011;4797;50.220;8.782;2022-07-11T07:48:39;80.10;;;55.40;;
9518;SDS011;4797;50.220;8.782;2022-07-11T07:51:08;80.50;;;55.97;;
9518;SDS011;4797;50.220;8.782;2022-07-11T07:53:37;80.53;;;55.40;;
9518;SDS011;4797;50.220;8.782;2022-07-11T07:56:06;87.23;;;59.73;;
9518;SDS011;4797;50.220;8.782;2022-07-11T07:58:34;86.07;;;60.30;;
9518;SDS011;4797;50.220;8.782;2022-07-11T08:01:02;80.20;;;55.53;;
9518;SDS011;4797;50.220;8.782;2022-07-11T08:03:48;89.93;;;62.10;;
9518;SDS011;4797;50.220;8.782;2022-07-11T08:06:17;77.43;;;53.70;;
9518;SDS011;4797;50.220;8.782;2022-07-11T08:08:47;86.07;;;57.83;;
9518;SDS011;4797;50.220;8.782;2022-07-11T08:11:15;79.90;;;55.37;;
9518;SDS011;4797;50.220;8.782;2022-07-11T08:13:56;81.13;;;56.80;;
9518;SDS011;4797;50.220;8.782;2022-07-11T08:16:24;80.90;;;55.30;;
9518;SDS011;4797;50.220;8.782;2022-07-11T08:18:55;83.50;;;58.73;;
9518;SDS011;4797;50.220;8.782;2022-07-11T08:21:24;80.47;;;55.13;;
9518;SDS011;4797;50.220;8.782;2022-07-11T08:23:54;86.73;;;59.40;;
9518;SDS011;4797;50.220;8.782;2022-07-11T08:26:22;81.87;;;55.30;;
9518;SDS011;4797;50.220;8.782;2022-07-11T08:28:57;79.87;;;54.13;;
9518;SDS011;4797;50.220;8.782;2022-07-11T08:31:25;79.37;;;54.80;;
9518;SDS011;4797;50.220;8.782;2022-07-11T08:33:54;82.17;;;56.00;;
9518;SDS011;4797;50.220;8.782;2022-07-11T08:36:24;79.83;;;55.17;;
9518;SDS011;4797;50.220;8.782;2022-07-11T08:38:55;79.13;;;54.53;;
9518;SDS011;4797;50.220;8.782;2022-07-11T08:41:24;86.90;;;59.03;;
9518;SDS011;4797;50.220;8.782;2022-07-11T08:43:52;82.53;;;56.30;;
9518;SDS011;4797;50.220;8.782;2022-07-11T08:46:20;85.87;;;59.50;;
9518;SDS011;4797;50.220;8.782;2022-07-11T08:48:49;78.67;;;53.57;;
9518;SDS011;4797;50.220;8.782;2022-07-11T08:51:17;79.47;;;54.20;;
9518;SDS011;4797;50.220;8.782;2022-07-11T08:53:46;79.20;;;54.43;;
9518;SDS011;4797;50.220;8.782;2022-07-11T08:56:16;86.77;;;60.00;;
9518;SDS011;4797;50.220;8.782;2022-07-11T08:58:45;82.20;;;54.50;;
9518;SDS011;4797;50.220;8.782;2022-07-11T09:01:27;86.73;;;56.50;;
9518;SDS011;4797;50.220;8.782;2022-07-11T09:03:57;85.30;;;58.20;;
9518;SDS011;4797;50.220;8.782;2022-07-11T09:06:26;80.23;;;54.27;;
9518;SDS011;4797;50.220;8.782;2022-07-11T09:08:56;85.77;;;58.07;;
9518;SDS011;4797;50.220;8.782;2022-07-11T09:11:26;78.43;;;53.60;;
9518;SDS011;4797;50.220;8.782;2022-07-11T09:13:54;79.67;;;55.60;;
9518;SDS011;4797;50.220;8.782;2022-07-11T09:16:23;80.63;;;54.27;;
9518;SDS011;4797;50.220;8.782;2022-07-11T09:18:57;79.40;;;53.63;;
9518;SDS011;4797;50.220;8.782;2022-07-11T09:21:26;77.97;;;53.13;;
9518;SDS011;4797;50.220;8.782;2022-07-11T09:24:13;79.87;;;53.63;;
9518;SDS011;4797;50.220;8.782;2022-07-11T09:27:00;86.70;;;57.90;;
9518;SDS011;4797;50.220;8.782;2022-07-11T09:29:29;85.50;;;58.10;;
9518;SDS011;4797;50.220;8.782;2022-07-11T09:31:57;78.20;;;53.63;;
9518;SDS011;4797;50.220;8.782;2022-07-11T09:34:25;79.23;;;53.57;;
9518;SDS011;4797;50.220;8.782;2022-07-11T09:36:55;80.30;;;55.17;;
9518;SDS011;4797;50.220;8.782;2022-07-11T09:39:24;79.97;;;54.00;;
9518;SDS011;4797;50.220;8.782;2022-07-11T09:41:53;81.00;;;54.83;;
9518;SDS011;4797;50.220;8.782;2022-07-11T09:44:23;84.17;;;55.03;;
9518;SDS011;4797;50.220;8.782;2022-07-11T09:46:54;79.77;;;54.87;;
9518;SDS011;4797;50.220;8.782;2022-07-11T09:49:29;81.67;;;54.27;;
9518;SDS011;4797;50.220;8.782;2022-07-11T09:52:05;78.90;;;53.50;;
9518;SDS011;4797;50.220;8.782;2022-07-11T09:54:34;80.70;;;54.40;;
9518;SDS011;4797;50.220;8.782;2022-07-11T09:57:19;81.17;;;54.73;;
9518;SDS011;4797;50.220;8.782;2022-07-11T09:59:57;81.83;;;55.17;;
9518;SDS011;4797;50.220;8.782;2022-07-11T10:02:26;79.93;;;54.20;;
9518;SDS011;4797;50.220;8.782;2022-07-11T10:04:55;81.47;;;54.00;;
9518;SDS011;4797;50.220;8.782;2022-07-11T10:07:25;80.60;;;54.60;;
9518;SDS011;4797;50.220;8.782;2022-07-11T10:09:54;80.53;;;54.50;;
9518;SDS011;4797;50.220;8.782;2022-07-11T10:12:23;81.03;;;54.37;;
9518;SDS011;4797;50.220;8.782;2022-07-11T10:14:51;81.43;;;55.00;;
9518;SDS011;4797;50.220;8.782;2022-07-11T10:17:25;84.13;;;56.67;;
9518;SDS011;4797;50.220;8.782;2022-07-11T10:19:57;82.57;;;56.00;;
9518;SDS011;4797;50.220;8.782;2022-07-11T10:22:29;80.80;;;54.70;;
9518;SDS011;4797;50.220;8.782;2022-07-11T10:25:01;80.17;;;53.90;;
9518;SDS011;4797;50.220;8.782;2022-07-11T10:27:33;82.03;;;55.53;;
9518;SDS011;4797;50.220;8.782;2022-07-11T10:30:07;80.13;;;53.67;;
9518;SDS011;4797;50.220;8.782;2022-07-11T10:35:20;90.13;;;60.83;;
9518;SDS011;4797;50.220;8.782;2022-07-11T10:37:50;89.07;;;59.63;;
9518;SDS011;4797;50.220;8.782;2022-07-11T10:43:03;81.60;;;54.57;;
9518;SDS011;4797;50.220;8.782;2022-07-11T10:45:43;86.60;;;55.73;;
9518;SDS011;4797;50.220;8.782;2022-07-11T10:48:17;81.20;;;54.10;;
9518;SDS011;4797;50.220;8.782;2022-07-11T10:50:47;81.60;;;54.23;;
9518;SDS011;4797;50.220;8.782;2022-07-11T10:53:20;80.20;;;53.67;;
9518;SDS011;4797;50.220;8.782;2022-07-11T10:55:53;79.93;;;53.23;;
9518;SDS011;4797;50.220;8.782;2022-07-11T10:58:29;83.90;;;55.73;;
9518;SDS011;4797;50.220;8.782;2022-07-11T11:01:09;87.63;;;60.90;;
9518;SDS011;4797;50.220;8.782;2022-07-11T11:03:38;94.43;;;62.80;;
9518;SDS011;4797;50.220;8.782;2022-07-11T11:06:08;84.40;;;55.93;;
9518;SDS011;4797;50.220;8.782;2022-07-11T11:08:42;83.60;;;54.37;;
9518;SDS011;4797;50.220;8.782;2022-07-11T11:14:21;83.30;;;56.07;;
9518;SDS011;4797;50.220;8.782;2022-07-11T11:16:52;82.27;;;55.03;;
9518;SDS011;4797;50.220;8.782;2022-07-11T11:22:19;91.40;;;61.57;;
9518;SDS011;4797;50.220;8.782;2022-07-11T11:24:52;91.93;;;61.03;;
9518;SDS011;4797;50.220;8.782;2022-07-11T11:27:48;89.90;;;60.17;;
9518;SDS011;4797;50.220;8.782;2022-07-11T11:30:27;89.00;;;59.37;;
9518;SDS011;4797;50.220;8.782;2022-07-11T11:32:55;86.90;;;58.73;;
9518;SDS011;4797;50.220;8.782;2022-07-11T11:35:24;84.97;;;57.40;;
9518;SDS011;4797;50.220;8.782;2022-07-11T11:37:58;84.10;;;56.03;;
9518;SDS011;4797;50.220;8.782;2022-07-11T11:40:27;82.00;;;54.43;;
9518;SDS011;4797;50.220;8.782;2022-07-11T11:42:56;87.83;;;58.20;;
9518;SDS011;4797;50.220;8.782;2022-07-11T11:45:24;82.27;;;54.60;;
9518;SDS011;4797;50.220;8.782;2022-07-11T11:47:56;82.30;;;54.23;;
9518;SDS011;4797;50.220;8.782;2022-07-11T11:50:24;86.70;;;57.10;;
9518;SDS011;4797;50.220;8.782;2022-07-11T11:52:53;83.67;;;55.60;;
9518;SDS011;4797;50.220;8.782;2022-07-11T11:55:22;87.33;;;57.30;;
9518;SDS011;4797;50.220;8.782;2022-07-11T11:57:51;83.77;;;55.40;;
9518;SDS011;4797;50.220;8.782;2022-07-11T12:00:19;90.90;;;60.57;;
9518;SDS011;4797;50.220;8.782;2022-07-11T12:03:12;93.03;;;62.27;;
9518;SDS011;4797;50.220;8.782;2022-07-11T12:05:40;92.97;;;62.47;;
9518;SDS011;4797;50.220;8.782;2022-07-11T12:08:24;88.67;;;57.83;;
9518;SDS011;4797;50.220;8.782;2022-07-11T12:10:54;80.73;;;53.40;;
9518;SDS011;4797;50.220;8.782;2022-07-11T12:13:22;90.27;;;58.40;;
9518;SDS011;4797;50.220;8.782;2022-07-11T12:15:51;83.77;;;54.07;;
9518;SDS011;4797;50.220;8.782;2022-07-11T12:18:37;90.97;;;61.17;;
9518;SDS011;4797;50.220;8.782;2022-07-11T12:21:09;83.70;;;55.30;;
9518;SDS011;4797;50.220;8.782;2022-07-11T12:23:37;94.73;;;60.53;;
9518;SDS011;4797;50.220;8.782;2022-07-11T12:26:07;82.03;;;54.53;;
9518;SDS011;4797;50.220;8.782;2022-07-11T12:31:21;86.70;;;57.17;;
9518;SDS011;4797;50.220;8.782;2022-07-11T12:33:50;86.17;;;57.73;;
9518;SDS011;4797;50.220;8.782;2022-07-11T12:36:19;89.77;;;56.93;;
9518;SDS011;4797;50.220;8.782;2022-07-11T12:38:59;86.70;;;57.37;;
9518;SDS011;4797;50.220;8.782;2022-07-11T12:41:30;89.10;;;59.27;;
9518;SDS011;4797;50.220;8.782;2022-07-11T12:43:58;81.33;;;53.53;;
9518;SDS011;4797;50.220;8.782;2022-07-11T12:46:45;92.93;;;57.00;;
9518;SDS011;4797;50.220;8.782;2022-07-11T12:49:14;86.13;;;56.67;;
9518;SDS011;4797;50.220;8.782;2022-07-11T12:51:44;84.00;;;55.37;;
9518;SDS011;4797;50.220;8.782;2022-07-11T12:54:13;85.57;;;57.17;;
9518;SDS011;4797;50.220;8.782;2022-07-11T12:56:52;85.73;;;56.80;;
9518;SDS011;4797;50.220;8.782;2022-07-11T12:59:21;84.63;;;55.90;;
9518;SDS011;4797;50.220;8.782;2022-07-11T13:01:53;85.87;;;56.93;;
9518;SDS011;4797;50.220;8.782;2022-07-11T13:04:28;91.60;;;60.73;;
9518;SDS011;4797;50.220;8.782;2022-07-11T13:06:56;90.30;;;59.33;;
9518;SDS011;4797;50.220;8.782;2022-07-11T13:09:43;84.73;;;54.43;;
9518;SDS011;4797;50.220;8.782;2022-07-11T13:12:12;87.13;;;56.80;;
9518;SDS011;4797;50.220;8.782;2022-07-11T13:14:41;88.73;;;56.70;;
9518;SDS011;4797;50.220;8.782;2022-07-11T13:17:26;85.80;;;56.40;;
9518;SDS011;4797;50.220;8.782;2022-07-11T13:19:55;84.93;;;56.20;;
9518;SDS011;4797;50.220;8.782;2022-07-11T13:22:25;85.50;;;56.47;;
9518;SDS011;4797;50.220;8.782;2022-07-11T13:24:53;86.37;;;57.50;;
9518;SDS011;4797;50.220;8.782;2022-07-11T13:27:23;89.00;;;57.73;;
9518;SDS011;4797;50.220;8.782;2022-07-11T13:29:51;85.90;;;56.50;;
9518;SDS011;4797;50.220;8.782;2022-07-11T13:32:19;89.77;;;58.03;;
9518;SDS011;4797;50.220;8.782;2022-07-11T13:34:48;88.37;;;58.50;;
9518;SDS011;4797;50.220;8.782;2022-07-11T13:37:16;87.93;;;57.30;;
9518;SDS011;4797;50.220;8.782;2022-07-11T13:39:44;94.03;;;61.33;;
9518;SDS011;4797;50.220;8.782;2022-07-11T13:42:12;88.27;;;58.73;;
9518;SDS011;4797;50.220;8.782;2022-07-11T13:44:42;88.13;;;58.37;;
9518;SDS011;4797;50.220;8.782;2022-07-11T13:47:10;92.30;;;61.40;;
9518;SDS011;4797;50.220;8.782;2022-07-11T13:49:40;90.60;;;58.77;;
9518;SDS011;4797;50.220;8.782;2022-07-11T13:52:08;84.57;;;54.40;;
9518;SDS011;4797;50.220;8.782;2022-07-11T13:54:37;88.10;;;57.63;;
9518;SDS011;4797;50.220;8.782;2022-07-11T13:57:06;85.47;;;55.63;;
9518;SDS011;4797;50.220;8.782;2022-07-11T13:59:34;88.03;;;57.77;;
9518;SDS011;4797;50.220;8.782;2022-07-11T14:02:04;93.27;;;61.07;;
9518;SDS011;4797;50.220;8.782;2022-07-11T14:04:33;93.07;;;60.50;;
9518;SDS011;4797;50.220;8.782;2022-07-11T14:07:01;93.00;;;60.73;;
9518;SDS011;4797;50.220;8.782;2022-07-11T14:09:30;93.47;;;59.87;;
9518;SDS011;4797;50.220;8.782;2022-07-11T14:11:58;93.33;;;61.57;;
9518;SDS011;4797;50.220;8.782;2022-07-11T14:14:27;97.90;;;60.43;;
9518;SDS011;4797;50.220;8.782;2022-07-11T14:16:56;96.40;;;64.03;;
9518;SDS011;4797;50.220;8.782;2022-07-11T14:19:26;91.13;;;60.37;;
9518;SDS011;4797;50.220;8.782;2022-07-11T14:21:54;89.30;;;57.30;;
9518;SDS011;4797;50.220;8.782;2022-07-11T14:24:22;93.70;;;62.47;;
9518;SDS011;4797;50.220;8.782;2022-07-11T14:26:52;92.33;;;60.93;;
9518;SDS011;4797;50.220;8.782;2022-07-11T14:29:21;89.60;;;59.10;;
9518;SDS011;4797;50.220;8.782;2022-07-11T14:31:50;89.73;;;59.43;;
9518;SDS011;4797;50.220;8.782;2022-07-11T14:34:19;93.70;;;59.43;;
9518;SDS011;4797;50.220;8.782;2022-07-11T14:36:49;90.93;;;59.90;;
9518;SDS011;4797;50.220;8.782;2022-07-11T14:39:18;88.73;;;58.63;;
9518;SDS011;4797;50.220;8.782;2022-07-11T14:41:46;90.93;;;60.07;;
9518;SDS011;4797;50.220;8.782;2022-07-11T14:44:15;90.37;;;58.80;;
9518;SDS011;4797;50.220;8.782;2022-07-11T14:46:43;98.30;;;65.43;;
9518;SDS011;4797;50.220;8.782;2022-07-11T14:49:13;92.50;;;60.57;;
9518;SDS011;4797;50.220;8.782;2022-07-11T14:51:42;112.23;;;77.50;;
9518;SDS011;4797;50.220;8.782;2022-07-11T14:54:23;101.10;;;64.57;;
9518;SDS011;4797;50.220;8.782;2022-07-11T14:56:54;95.27;;;62.50;;
9518;SDS011;4797;50.220;8.782;2022-07-11T14:59:22;91.13;;;60.17;;
9518;SDS011;4797;50.220;8.782;2022-07-11T15:01:50;91.53;;;59.63;;
9518;SDS011;4797;50.220;8.782;2022-07-11T15:04:19;90.47;;;58.90;;
9518;SDS011;4797;50.220;8.782;2022-07-11T15:06:48;88.73;;;57.13;;
9518;SDS011;4797;50.220;8.782;2022-07-11T15:09:35;88.97;;;58.07;;
9518;SDS011;4797;50.220;8.782;2022-07-11T15:12:21;89.30;;;57.73;;
9518;SDS011;4797;50.220;8.782;2022-07-11T15:14:51;89.23;;;57.80;;
9518;SDS011;4797;50.220;8.782;2022-07-11T15:17:20;89.67;;;56.53;;
9518;SDS011;4797;50.220;8.782;2022-07-11T15:19:49;89.30;;;57.57;;